Terminal Aerodrome Forecast
Issued by NWS

Home | Current Version | Previous Version | Graphics & Text | Print | Product List | Glossary On
Versions: 1 2 3 4 5 6 7 8 9 10 11 12 13 14 15 16 17 18 19 20 21 22 23 24 25 26 27
000
FTUS43 KLOT 180521
TAFGYY
TAF
KGYY 180521Z 1806/1906 25007KT 3SM BR SCT004 OVC007
      TEMPO 1811/1815 BKN004
     FM181700 24012KT P6SM SCT020
     FM182100 22012G17KT P6SM SCT150
     FM190000 21007KT P6SM FEW200=

USA.gov is the U.S. government's official web portal to all federal, state and local government web resources and services.